Time;durP1;ratioP1;P1;durP2;ratioP2;P2;SDS_P1;SDS_P2;PMS_P1;PMS_P2;Temp;Humidity;BMP_temperature;BMP_pressure;BME280_temperature;BME280_humidity;BME280_pressure;Samples;Min_cycle;Max_cycle;Signal;HPM_P1;HPM_P2
2022/03/13 00:00:59;;;;;;;17.95;10.65;;;10.30;71.80;;;8.72;61.80;100579.81;5009888;28;20107;-83
2022/03/13 00:03:28;;;;;;;17.67;10.65;;;10.20;71.70;;;8.67;61.41;100571.34;5010537;28;20088;-83
2022/03/13 00:05:56;;;;;;;17.90;10.30;;;10.20;72.00;;;8.66;62.02;100571.50;5010337;28;20120;-82
2022/03/13 00:08:30;;;;;;;17.05;10.10;;;10.20;71.80;;;8.69;62.25;100571.16;4992915;28;20049;-82
2022/03/13 00:11:01;;;;;;;19.42;10.88;;;10.10;72.10;;;8.73;62.17;100575.22;4992075;28;20305;-82
2022/03/13 00:13:31;;;;;;;16.27;10.15;;;10.10;72.10;;;8.71;62.30;100574.56;5010077;28;20078;-82
2022/03/13 00:16:01;;;;;;;18.85;9.80;;;10.10;72.20;;;8.70;61.68;100572.84;5010151;28;20045;-82
2022/03/13 00:18:28;;;;;;;16.15;10.18;;;10.10;72.10;;;8.71;61.57;100572.69;5010141;28;20053;-82
2022/03/13 00:20:56;;;;;;;18.50;10.55;;;10.10;72.10;;;8.66;61.59;100574.22;4978961;28;20053;-82
2022/03/13 00:23:25;;;;;;;15.77;9.88;;;10.10;72.00;;;8.73;62.18;100569.81;5010073;28;20042;-83
2022/03/13 00:25:54;;;;;;;18.27;10.45;;;10.10;72.00;;;8.78;61.94;100578.28;5010195;28;20069;-83
2022/03/13 00:28:21;;;;;;;16.02;10.38;;;10.10;72.10;;;8.73;62.03;100572.53;5009792;28;20124;-82
2022/03/13 00:30:50;;;;;;;17.20;9.88;;;10.10;72.00;;;8.77;61.97;100572.00;5009710;28;20038;-83
2022/03/13 00:33:17;;;;;;;16.70;9.40;;;10.10;72.20;;;8.76;62.32;100572.19;5006498;28;20041;-83
2022/03/13 00:35:44;;;;;;;16.88;10.15;;;10.10;72.40;;;8.79;61.69;100569.94;5002848;28;20129;-83
2022/03/13 00:38:11;;;;;;;16.83;10.50;;;10.10;72.40;;;8.84;62.36;100563.19;5009855;28;20117;-83
2022/03/13 00:40:40;;;;;;;15.30;9.77;;;10.10;72.60;;;8.90;62.00;100566.03;5009813;28;20107;-83
2022/03/13 00:43:08;;;;;;;15.98;9.35;;;10.10;71.80;;;8.91;60.97;100575.03;4992065;28;20045;-83
2022/03/13 00:45:35;;;;;;;17.38;10.00;;;10.10;71.90;;;8.91;61.60;100572.31;4991829;28;20042;-83
2022/03/13 00:48:03;;;;;;;17.50;10.13;;;10.20;71.30;;;8.89;61.00;100567.09;5009303;28;20495;-83
2022/03/13 00:50:30;;;;;;;16.10;9.93;;;10.10;71.20;;;8.87;61.02;100569.13;5009171;28;20042;-83
2022/03/13 00:52:57;;;;;;;15.32;9.63;;;10.10;70.90;;;8.85;60.38;100564.88;5009723;28;20069;-83
2022/03/13 00:55:25;;;;;;;13.15;8.93;;;10.10;70.70;;;8.86;61.37;100561.16;5009914;28;20046;-82
2022/03/13 00:57:54;;;;;;;16.55;9.93;;;10.10;70.60;;;8.88;60.65;100562.66;5009523;28;20471;-83
2022/03/13 01:00:21;;;;;;;15.93;9.80;;;10.10;70.50;;;8.93;60.99;100557.56;4989762;28;20054;-83
2022/03/13 01:02:49;;;;;;;17.20;9.10;;;10.20;70.20;;;8.95;60.64;100554.69;4996745;28;20512;-84
2022/03/13 01:05:23;;;;;;;17.45;9.07;;;10.20;70.00;;;8.96;60.83;100557.19;5009689;28;20153;-83
2022/03/13 01:07:51;;;;;;;16.90;9.60;;;10.20;70.10;;;8.99;60.22;100558.75;5010274;28;20046;-83
2022/03/13 01:10:19;;;;;;;16.40;9.70;;;10.20;70.20;;;8.98;59.86;100554.31;5012794;28;20071;-83
2022/03/13 01:12:49;;;;;;;15.13;9.50;;;10.20;70.20;;;8.92;59.76;100547.72;5012702;28;20065;-83
2022/03/13 01:15:17;;;;;;;15.23;9.48;;;10.20;70.60;;;8.86;59.95;100543.00;5013702;28;20591;-83
2022/03/13 01:17:45;;;;;;;18.92;9.63;;;10.10;70.50;;;8.85;59.93;100538.56;5013246;28;20046;-83
2022/03/13 01:20:18;;;;;;;16.23;9.43;;;10.10;69.90;;;8.87;59.56;100536.56;5013092;28;20108;-83
2022/03/13 01:22:46;;;;;;;17.45;10.20;;;10.10;70.10;;;8.83;58.22;100535.19;5013097;28;20045;-83
2022/03/13 01:25:14;;;;;;;14.50;9.40;;;10.10;69.70;;;8.82;59.32;100533.50;5013102;28;20046;-82
2022/03/13 01:27:43;;;;;;;19.08;9.45;;;10.10;69.30;;;8.69;58.55;100522.34;5012961;28;20038;-83
2022/03/13 01:30:13;;;;;;;16.38;8.95;;;10.10;69.40;;;8.63;59.66;100518.44;5012782;28;20045;-83
2022/03/13 01:32:48;;;;;;;14.52;9.45;;;10.00;69.20;;;8.56;59.64;100529.13;5013071;28;20050;-83
2022/03/13 01:35:22;;;;;;;14.95;9.05;;;10.00;69.40;;;8.56;58.42;100523.69;5012851;28;20635;-83
2022/03/13 01:37:51;;;;;;;12.95;9.05;;;9.90;69.20;;;8.51;58.41;100515.25;5012898;28;20100;-83
2022/03/13 01:40:21;;;;;;;16.02;9.65;;;9.90;69.20;;;8.46;57.45;100517.59;5013228;28;20360;-83
2022/03/13 01:42:50;;;;;;;15.63;9.20;;;9.90;68.80;;;8.44;58.10;100513.38;5012126;28;20054;-83
2022/03/13 01:45:20;;;;;;;13.00;8.38;;;9.90;68.80;;;8.34;58.95;100508.06;5013201;28;20049;-82
2022/03/13 01:47:49;;;;;;;16.25;8.95;;;9.90;69.30;;;8.27;58.17;100504.38;4993315;28;20042;-82
2022/03/13 01:50:18;;;;;;;17.20;8.75;;;9.80;69.20;;;8.31;58.79;100494.88;4993068;28;20180;-83
2022/03/13 01:52:48;;;;;;;15.20;9.48;;;9.80;68.60;;;8.35;58.68;100493.50;5012091;28;20120;-83
2022/03/13 01:55:16;;;;;;;18.42;8.75;;;9.80;68.90;;;8.38;58.23;100487.75;5012690;28;20046;-82
2022/03/13 01:57:45;;;;;;;17.60;8.98;;;9.80;68.50;;;8.33;57.64;100479.28;5012357;28;20068;-82
2022/03/13 02:00:14;;;;;;;18.23;9.20;;;9.80;68.30;;;8.31;57.98;100481.31;4994815;28;20141;-82
2022/03/13 02:02:48;;;;;;;15.60;8.75;;;9.70;68.10;;;8.35;56.58;100469.13;4994669;28;20084;-83
2022/03/13 02:05:30;;;;;;;15.48;9.07;;;9.70;67.50;;;8.34;56.21;100470.13;5012576;28;20109;-83
2022/03/13 02:07:59;;;;;;;17.35;9.15;;;9.70;67.30;;;8.32;57.50;100464.88;5012062;28;20496;-83
2022/03/13 02:10:26;;;;;;;12.73;8.77;;;9.70;66.50;;;8.37;56.68;100458.94;5010755;28;20505;-82
2022/03/13 02:12:55;;;;;;;14.60;8.57;;;9.70;65.70;;;8.40;56.08;100453.19;5012398;28;20072;-83
2022/03/13 02:15:22;;;;;;;16.40;8.73;;;9.80;65.10;;;8.44;55.20;100456.44;5012279;28;20053;-82
2022/03/13 02:17:54;;;;;;;13.52;8.73;;;9.80;63.90;;;8.48;55.41;100465.91;5012444;28;20038;-82
2022/03/13 02:20:26;;;;;;;15.85;9.02;;;9.80;64.50;;;8.47;54.59;100458.78;5011660;28;20081;-83
2022/03/13 02:23:01;;;;;;;15.60;9.35;;;9.80;63.50;;;8.44;52.02;100451.84;5011887;28;20120;-83
2022/03/13 02:25:34;;;;;;;14.40;9.18;;;9.80;63.50;;;8.39;53.11;100454.19;5012272;28;20508;-82
2022/03/13 02:28:02;;;;;;;15.15;9.27;;;9.80;63.70;;;8.35;54.10;100456.41;5012232;28;20042;-82
2022/03/13 02:30:29;;;;;;;18.63;9.30;;;9.80;63.30;;;8.37;52.37;100443.50;4994439;28;20144;-83
2022/03/13 02:32:56;;;;;;;15.57;9.30;;;9.80;62.60;;;8.38;52.90;100450.63;5011643;28;20392;-83
2022/03/13 02:35:24;;;;;;;16.27;9.50;;;9.80;62.20;;;8.38;53.36;100449.81;5007783;28;20040;-83
2022/03/13 02:37:51;;;;;;;14.25;9.25;;;9.80;61.50;;;8.37;51.16;100448.94;5011464;28;20439;-83
2022/03/13 02:40:23;;;;;;;14.70;9.63;;;9.80;61.40;;;8.37;53.24;100446.22;5011455;28;20121;-82
2022/03/13 02:42:51;;;;;;;15.00;9.07;;;9.80;60.90;;;8.38;51.86;100444.38;4994109;28;20077;-82
2022/03/13 02:45:38;;;;;;;15.80;9.75;;;9.70;60.30;;;8.39;52.70;100440.63;5011603;28;20369;-82
2022/03/13 02:48:10;;;;;;;17.02;9.40;;;9.80;59.70;;;8.32;51.42;100435.06;5011645;28;20046;-82
2022/03/13 02:50:38;;;;;;;15.90;8.90;;;9.70;59.90;;;8.26;49.86;100435.72;4993689;28;20069;-83
2022/03/13 02:53:06;;;;;;;18.67;10.15;;;9.70;59.80;;;8.23;50.33;100439.63;5012030;28;20066;-83
2022/03/13 02:55:35;;;;;;;18.60;9.32;;;9.70;59.50;;;8.26;50.95;100426.75;5011530;28;20030;-82
2022/03/13 02:58:06;;;;;;;17.88;9.50;;;9.70;59.30;;;8.29;51.39;100423.72;5011767;28;20042;-83
2022/03/13 03:00:46;;;;;;;17.85;9.15;;;9.60;58.50;;;8.29;51.03;100418.28;5010835;28;20072;-83
2022/03/13 03:03:18;;;;;;;16.83;9.43;;;9.60;58.20;;;8.27;49.64;100421.16;5011582;28;20041;-83
2022/03/13 03:05:46;;;;;;;16.60;10.27;;;9.70;58.50;;;8.22;48.81;100418.97;5011303;28;20048;-83
2022/03/13 03:08:14;;;;;;;20.23;10.50;;;9.60;58.30;;;8.20;48.88;100421.00;4993942;28;20045;-82
2022/03/13 03:10:43;;;;;;;16.30;10.15;;;9.60;58.30;;;8.21;49.17;100424.56;5010762;28;20044;-82
2022/03/13 03:13:12;;;;;;;17.67;9.85;;;9.60;58.00;;;8.17;48.03;100426.78;5011130;28;20041;-82
2022/03/13 03:15:40;;;;;;;15.38;9.73;;;9.60;57.70;;;8.12;49.09;100428.31;5010978;28;20042;-82
2022/03/13 03:18:09;;;;;;;16.88;9.50;;;9.60;57.90;;;8.08;48.46;100425.09;5011284;28;20038;-82
2022/03/13 03:20:38;;;;;;;16.40;10.32;;;9.60;58.20;;;8.05;48.93;100427.28;5010622;28;20077;-82
2022/03/13 03:23:05;;;;;;;17.02;9.60;;;9.60;58.00;;;8.01;46.47;100433.06;5011424;28;20089;-82
2022/03/13 03:25:32;;;;;;;17.83;9.13;;;9.50;57.90;;;7.98;47.45;100435.25;5011098;28;20075;-82
2022/03/13 03:28:01;;;;;;;19.88;10.40;;;9.50;57.50;;;7.95;47.07;100435.59;5010915;28;20050;-82
2022/03/13 03:30:31;;;;;;;17.15;9.25;;;9.50;58.00;;;7.91;48.38;100436.94;5009575;28;20050;-82
2022/03/13 03:33:03;;;;;;;16.13;9.43;;;9.50;58.10;;;7.89;49.22;100433.56;5011095;28;20088;-83
2022/03/13 03:35:31;;;;;;;16.70;9.43;;;9.40;59.00;;;7.83;47.90;100429.66;5010900;28;20528;-83
2022/03/13 03:37:59;;;;;;;16.15;9.13;;;9.40;58.20;;;7.81;47.27;100431.72;5002237;28;20053;-83
2022/03/13 03:40:29;;;;;;;17.55;10.00;;;9.40;58.30;;;7.78;48.73;100432.88;4990972;28;20457;-82
2022/03/13 03:42:57;;;;;;;16.23;9.32;;;9.30;58.70;;;7.74;47.73;100425.25;4993362;28;20120;-83
2022/03/13 03:45:26;;;;;;;17.73;9.52;;;9.30;58.40;;;7.71;48.51;100421.03;5010978;28;20038;-83
2022/03/13 03:47:54;;;;;;;21.15;10.70;;;9.30;58.40;;;7.75;49.23;100416.97;5010496;28;20042;-83
2022/03/13 03:50:21;;;;;;;19.35;9.68;;;9.20;57.40;;;7.73;47.98;100410.00;5010197;28;20500;-82
2022/03/13 03:52:50;;;;;;;19.63;9.80;;;9.20;57.60;;;7.75;47.87;100416.97;5010322;28;20042;-83
2022/03/13 03:55:18;;;;;;;15.07;10.00;;;9.20;57.70;;;7.77;47.83;100420.34;4992495;28;20056;-83
2022/03/13 03:57:45;;;;;;;20.08;9.75;;;9.20;56.90;;;7.73;48.10;100418.13;5010635;28;20042;-83
2022/03/13 04:00:14;;;;;;;16.55;9.38;;;9.20;57.70;;;7.74;47.47;100428.81;5009851;28;20061;-83
2022/03/13 04:02:44;;;;;;;19.45;10.43;;;9.20;57.80;;;7.62;46.99;100416.63;5010674;28;20045;-82
2022/03/13 04:05:12;;;;;;;17.27;10.05;;;9.20;57.20;;;7.59;48.11;100419.66;5010082;28;20055;-83
2022/03/13 04:07:39;;;;;;;17.17;9.95;;;9.20;57.50;;;7.60;47.96;100416.78;5010250;28;20492;-83
2022/03/13 04:10:10;;;;;;;15.02;9.35;;;9.20;57.60;;;7.59;48.16;100414.25;5009761;28;20084;-82
2022/03/13 04:12:39;;;;;;;15.88;9.20;;;9.10;57.60;;;7.54;47.65;100408.47;5010564;28;20049;-83
2022/03/13 04:15:07;;;;;;;20.65;10.52;;;9.10;57.30;;;7.48;47.48;100409.16;5010021;28;20042;-83
2022/03/13 04:17:35;;;;;;;16.73;9.65;;;9.10;57.10;;;7.47;47.42;100413.72;5010168;28;20045;-83
2022/03/13 04:20:06;;;;;;;18.80;9.15;;;9.00;57.30;;;7.44;47.08;100412.22;4991847;28;20053;-82
2022/03/13 04:22:34;;;;;;;;;;;9.00;57.00;;;7.39;46.77;100417.25;4992697;28;20080;-83
2022/03/13 04:25:01;;;;;;;17.23;9.82;;;9.00;57.00;;;7.35;47.45;100410.50;5010380;28;19925;-82
2022/03/13 04:27:30;;;;;;;17.55;10.02;;;9.00;57.10;;;7.28;47.15;100406.75;5009797;28;20045;-82
2022/03/13 04:29:58;;;;;;;18.02;10.32;;;9.00;57.10;;;7.27;47.28;100405.03;5006501;28;20041;-83
2022/03/13 04:32:25;;;;;;;16.55;9.80;;;9.00;57.80;;;7.22;47.38;100410.13;5009722;28;20038;-83
2022/03/13 04:34:52;;;;;;;15.88;9.80;;;8.90;58.10;;;7.16;48.24;100405.34;5009900;28;20128;-83
2022/03/13 04:37:22;;;;;;;16.23;9.98;;;8.90;58.10;;;7.00;48.58;100407.00;5009443;28;20443;-83
2022/03/13 04:39:50;;;;;;;18.25;9.85;;;8.80;57.90;;;6.94;47.94;100407.66;4992036;28;20472;-83
2022/03/13 04:42:19;;;;;;;15.60;9.27;;;8.80;57.80;;;6.90;48.12;100417.13;5009387;28;20093;-82
2022/03/13 04:44:47;;;;;;;19.20;10.13;;;8.80;57.90;;;6.85;47.52;100419.47;5009988;28;20892;-82
2022/03/13 04:47:14;;;;;;;18.05;9.40;;;8.80;57.30;;;6.82;48.20;100419.81;5009665;28;20052;-83
2022/03/13 04:49:42;;;;;;;14.48;8.60;;;8.70;57.70;;;6.70;49.01;100416.53;5009985;28;20046;-83
2022/03/13 04:52:09;;;;;;;16.65;9.90;;;8.70;58.40;;;6.53;50.52;100421.03;5009448;28;20044;-83
2022/03/13 04:54:37;;;;;;;15.65;8.82;;;8.70;59.20;;;6.45;51.53;100423.66;5009716;28;20050;-83
2022/03/13 04:57:05;;;;;;;16.85;9.52;;;8.60;59.20;;;6.31;51.29;100424.25;5009576;28;20055;-83
2022/03/13 04:59:33;;;;;;;18.25;10.00;;;8.60;59.10;;;6.27;50.88;100429.13;5009595;28;20492;-83
2022/03/13 05:02:00;;;;;;;19.58;9.82;;;8.60;59.40;;;6.13;51.40;100424.28;5009491;28;20053;-82
2022/03/13 05:04:27;;;;;;;16.02;9.57;;;8.50;59.80;;;6.10;52.27;100420.06;5009649;28;20046;-83
2022/03/13 05:06:55;;;;;;;17.60;9.82;;;8.40;59.90;;;5.97;51.65;100416.94;5009650;28;20041;-83
2022/03/13 05:09:22;;;;;;;16.63;9.55;;;8.40;60.10;;;6.02;51.85;100428.13;5009726;28;20046;-82
2022/03/13 05:11:51;;;;;;;17.80;9.35;;;8.30;59.80;;;5.86;52.21;100435.06;4989982;28;20042;-83
2022/03/13 05:14:18;;;;;;;18.27;9.98;;;8.20;59.80;;;5.80;52.94;100427.56;4988735;28;20053;-83
2022/03/13 05:16:45;;;;;;;15.07;9.30;;;8.20;60.20;;;5.74;53.13;100430.88;5008469;28;20034;-83
2022/03/13 05:19:13;;;;;;;17.08;9.60;;;8.10;60.80;;;5.64;54.32;100424.72;5009579;28;20089;-83
2022/03/13 05:21:42;;;;;;;18.05;10.05;;;8.10;61.00;;;5.65;53.83;100426.41;5008990;28;20041;-83
2022/03/13 05:24:09;;;;;;;18.20;9.88;;;8.00;61.30;;;5.65;53.90;100431.81;4992211;28;20524;-83
2022/03/13 05:26:37;;;;;;;16.25;8.95;;;7.90;61.60;;;5.66;54.05;100428.13;5009327;28;20044;-83
2022/03/13 05:29:06;;;;;;;16.20;9.40;;;7.90;61.90;;;5.57;52.88;100429.03;5009092;28;20045;-83
2022/03/13 05:31:33;;;;;;;18.73;9.82;;;7.90;61.00;;;5.58;53.62;100422.63;5009193;28;20117;-83
2022/03/13 05:34:02;;;;;;;17.08;9.98;;;7.90;61.70;;;5.55;54.72;100420.25;5009351;28;20171;-83
2022/03/13 05:36:29;;;;;;;16.25;9.23;;;7.90;61.80;;;5.51;55.00;100425.09;5009575;28;20042;-83
2022/03/13 05:38:57;;;;;;;18.85;10.07;;;7.90;62.40;;;5.47;53.64;100416.47;5026939;22;20445;-92
2022/03/13 05:41:25;;;;;;;17.50;10.02;;;7.90;62.10;;;5.57;55.02;100418.25;5009721;28;20095;-92
2022/03/13 05:43:53;;;;;;;18.30;9.40;;;7.90;62.70;;;5.66;53.01;100422.72;5010877;28;20042;-92
2022/03/13 05:46:22;;;;;;;15.77;9.25;;;7.80;62.40;;;5.55;52.94;100420.25;5009641;28;20046;-91
2022/03/13 05:48:49;;;;;;;16.95;9.77;;;7.90;61.90;;;5.61;53.03;100415.06;5009682;28;20038;-91
2022/03/13 05:51:17;;;;;;;16.15;9.57;;;7.80;61.40;;;5.53;54.35;100420.41;4990963;28;20548;-92
2022/03/13 05:53:45;;;;;;;19.17;9.65;;;7.80;62.00;;;5.48;54.59;100410.09;4991895;28;20034;-91
2022/03/13 05:56:12;;;;;;;17.98;9.70;;;7.80;62.30;;;5.61;54.86;100416.94;4994857;28;20077;-91
2022/03/13 05:58:39;;;;;;;17.23;9.27;;;7.80;62.90;;;5.72;54.20;100413.16;4977724;28;20047;-92
2022/03/13 06:01:08;;;;;;;18.63;10.20;;;7.80;62.50;;;5.87;52.62;100415.13;4993932;28;20511;-91
2022/03/13 06:03:38;;;;;;;19.30;10.10;;;7.70;62.00;;;5.82;53.07;100412.03;4978447;28;20125;-90
2022/03/13 06:06:06;;;;;;;19.17;9.45;;;7.80;62.40;;;5.86;53.01;100415.28;4993780;28;20049;-87
2022/03/13 06:08:34;;;;;;;15.77;10.15;;;7.80;62.40;;;5.92;53.51;100416.50;4988283;28;20046;-92
2022/03/13 06:11:01;;;;;;;17.40;9.80;;;7.80;62.50;;;6.07;52.91;100423.94;4992795;28;20077;-89
2022/03/13 06:13:28;;;;;;;18.70;9.82;;;7.90;62.50;;;6.22;53.24;100424.19;4991146;28;20056;-88
2022/03/13 06:15:57;;;;;;;17.17;9.27;;;7.80;62.90;;;6.40;52.80;100428.72;5012489;28;20411;-90
2022/03/13 06:18:25;;;;;;;17.38;10.10;;;7.90;63.30;;;6.56;51.33;100414.44;4992751;28;20485;-87
2022/03/13 06:20:54;;;;;;;16.33;9.60;;;8.00;61.50;;;6.73;51.94;100410.78;4992487;28;20057;-88
2022/03/13 06:23:21;;;;;;;16.92;10.25;;;8.10;60.20;;;6.89;51.21;100409.16;5005715;28;20047;-88
2022/03/13 06:25:49;;;;;;;18.83;9.07;;;8.20;60.20;;;7.03;49.71;100411.25;4974876;28;20054;-88
2022/03/13 06:28:16;;;;;;;15.45;9.07;;;8.40;59.00;;;7.11;50.98;100407.72;5010017;28;20077;-88
2022/03/13 06:30:44;;;;;;;15.82;9.38;;;8.60;59.20;;;7.19;50.64;100410.44;4955657;28;20063;-88
2022/03/13 06:33:11;;;;;;;17.98;9.75;;;8.60;58.60;;;7.27;48.22;100413.16;5004172;28;20129;-90
2022/03/13 06:35:39;;;;;;;17.15;9.13;;;8.60;57.10;;;7.33;49.63;100411.66;5001770;28;20042;-90
2022/03/13 06:38:07;;;;;;;20.95;10.38;;;8.70;56.60;;;7.40;47.66;100415.41;4992883;28;20074;-90
2022/03/13 06:40:35;;;;;;;16.50;9.30;;;8.80;56.50;;;7.47;47.50;100412.88;4992208;28;20046;-89
2022/03/13 06:43:02;;;;;;;17.52;9.80;;;8.80;56.60;;;7.52;48.10;100415.91;4975274;28;20053;-91
2022/03/13 06:45:30;;;;;;;19.50;11.30;;;8.90;56.50;;;7.58;48.35;100409.84;4975651;28;20060;-89
2022/03/13 06:47:57;;;;;;;20.58;11.25;;;8.90;56.40;;;7.63;47.93;100418.31;4987767;28;20458;-89
2022/03/13 06:50:25;;;;;;;17.55;9.95;;;9.00;56.40;;;7.66;48.09;100407.13;4991957;28;20500;-91
2022/03/13 06:52:54;;;;;;;15.38;9.57;;;9.00;56.20;;;7.78;47.75;100432.88;5006161;28;20104;-91
2022/03/13 06:55:25;;;;;;;18.02;10.55;;;9.10;55.10;;;7.85;47.38;100437.63;4992015;28;20073;-89
2022/03/13 06:57:53;;;;;;;23.67;10.85;;;9.20;54.50;;;7.95;46.99;100432.88;4975487;28;20046;-89
2022/03/13 07:00:21;;;;;;;16.88;10.23;;;9.20;55.30;;;8.03;48.17;100435.59;4980495;28;20042;-89
2022/03/13 07:02:49;;;;;;;17.30;9.65;;;9.30;56.30;;;8.15;46.26;100442.38;4997846;28;20050;-89
2022/03/13 07:05:16;;;;;;;15.32;9.05;;;9.40;55.10;;;8.26;45.94;100443.84;4991434;28;20121;-88
2022/03/13 07:07:44;;;;;;;16.23;9.77;;;9.50;54.70;;;8.35;47.73;100439.28;4974678;28;20116;-89
2022/03/13 07:10:12;;;;;;;15.88;9.63;;;9.60;54.30;;;8.42;47.09;100445.75;4991571;28;21293;-93
2022/03/13 07:12:44;;;;;;;15.00;9.45;;;9.70;55.20;;;8.46;46.72;100438.97;4976928;28;20593;-93
2022/03/13 07:15:13;;;;;;;14.95;9.45;;;9.70;55.00;;;8.48;44.96;100439.63;5002652;28;20041;-88
2022/03/13 07:17:44;;;;;;;13.88;8.57;;;9.80;55.00;;;8.50;46.70;100434.88;4986638;28;20038;-94
2022/03/13 07:20:12;;;;;;;15.68;9.77;;;9.80;55.30;;;8.55;45.82;100435.22;4990606;28;20146;-94
2022/03/13 07:22:42;;;;;;;17.67;9.98;;;9.80;54.30;;;8.56;46.56;100434.19;4993701;28;20049;-92
2022/03/13 07:25:10;;;;;;;16.08;9.45;;;9.90;54.40;;;8.60;45.92;100445.53;4996056;28;20129;-94
2022/03/13 07:27:38;;;;;;;15.82;9.20;;;9.90;54.60;;;8.65;46.31;100439.59;4984733;28;20040;-90
2022/03/13 07:30:11;;;;;;;14.65;8.88;;;9.90;53.90;;;8.66;46.01;100436.69;4986708;28;20058;-94
2022/03/13 07:32:41;;;;;;;18.30;9.65;;;10.00;54.50;;;8.71;46.08;100436.19;4998167;28;20034;-95
2022/03/13 07:35:09;;;;;;;17.00;9.90;;;10.00;53.80;;;8.73;44.58;100439.56;4999699;28;20042;-91
2022/03/13 07:37:37;;;;;;;17.58;9.90;;;10.00;52.20;;;8.80;45.46;100438.69;5000244;28;20037;-91
2022/03/13 07:40:06;;;;;;;18.50;9.60;;;10.00;53.00;;;8.89;45.78;100439.53;4977809;28;20557;-90
2022/03/13 07:42:34;;;;;;;17.58;9.65;;;10.10;53.30;;;8.95;46.03;100436.09;4990763;28;20652;-91
2022/03/13 07:45:01;;;;;;;19.02;10.18;;;10.10;53.50;;;8.99;45.60;100436.59;4982932;28;20100;-90
2022/03/13 07:47:30;;;;;;;18.48;9.35;;;10.10;52.90;;;9.03;46.02;100429.78;5011271;28;20587;-92
2022/03/13 07:49:59;;;;;;;16.35;9.77;;;10.20;52.20;;;9.09;45.02;100437.22;4986333;28;20084;-94
2022/03/13 07:52:27;;;;;;;16.40;9.93;;;10.30;53.50;;;9.15;43.83;100430.22;4993840;28;20043;-94
2022/03/13 07:54:54;;;;;;;16.08;10.00;;;10.30;52.90;;;9.23;44.26;100427.47;4982230;28;20054;-88
2022/03/13 07:57:21;;;;;;;19.65;9.75;;;10.40;53.00;;;9.26;44.32;100421.69;4989967;28;20073;-89
2022/03/13 07:59:49;;;;;;;15.13;10.13;;;10.40;53.10;;;9.30;44.88;100427.63;5007828;28;20128;-92
2022/03/13 08:02:16;;;;;;;17.42;9.75;;;10.40;52.70;;;9.32;45.15;100431.84;4999045;28;20100;-90
2022/03/13 08:04:45;;;;;;;21.17;10.10;;;10.50;52.30;;;9.35;44.11;100417.91;4999572;28;20042;-89
2022/03/13 08:07:12;;;;;;;20.75;10.20;;;10.60;53.30;;;9.43;44.36;100421.59;4972206;28;20136;-88
2022/03/13 08:09:40;;;;;;;16.65;9.07;;;10.60;52.90;;;9.51;44.72;100418.81;4991388;28;20038;-92
2022/03/13 08:12:08;;;;;;;16.40;9.50;;;10.70;52.60;;;9.59;44.51;100414.19;4974426;28;20046;-92
2022/03/13 08:14:36;;;;;;;19.42;10.02;;;10.70;52.50;;;9.63;44.34;100406.50;5000307;28;20504;-92
2022/03/13 08:17:06;;;;;;;22.38;10.07;;;10.80;53.10;;;9.71;43.88;100417.31;4988149;28;20050;-87
2022/03/13 08:19:34;;;;;;;20.03;10.37;;;10.80;52.80;;;9.77;44.17;100415.75;4972358;28;20077;-86
2022/03/13 08:22:02;;;;;;;19.88;10.25;;;10.90;53.00;;;9.79;43.98;100417.25;4989860;28;20101;-89
2022/03/13 08:24:30;;;;;;;16.77;9.25;;;10.90;52.70;;;9.78;43.40;100414.72;4990914;28;20189;-88
2022/03/13 08:26:58;;;;;;;19.08;10.32;;;11.00;53.10;;;9.81;43.75;100414.34;4995201;28;20042;-92
2022/03/13 08:29:28;;;;;;;22.55;10.13;;;11.00;52.20;;;9.88;43.48;100412.59;4982895;28;20054;-92
2022/03/13 08:31:55;;;;;;;17.40;10.38;;;11.20;52.40;;;9.94;43.99;100413.75;4975789;28;20046;-93
2022/03/13 08:34:27;;;;;;;18.60;10.65;;;11.10;52.00;;;10.01;43.56;100422.00;4998848;28;20070;-92
2022/03/13 08:36:55;;;;;;;16.77;10.18;;;11.20;51.60;;;10.07;43.90;100413.97;4975201;28;20058;-95
2022/03/13 08:39:27;;;;;;;16.90;10.25;;;11.30;53.30;;;10.12;44.25;100416.97;4975511;28;20138;-93
2022/03/13 08:41:54;;;;;;;16.63;10.35;;;11.30;53.00;;;10.20;43.92;100409.75;4976846;28;20049;-94
2022/03/13 08:44:22;;;;;;;19.13;10.35;;;11.40;52.40;;;10.29;43.98;100422.25;4980204;28;20425;-93
2022/03/13 08:46:49;;;;;;;18.63;11.00;;;11.40;52.50;;;10.33;43.99;100401.84;4992547;28;20057;-92
2022/03/13 08:49:17;;;;;;;20.17;11.02;;;11.50;52.40;;;10.44;43.78;100414.16;4974885;28;20050;-92
2022/03/13 08:51:54;;;;;;;20.95;10.25;;;11.60;52.50;;;10.46;43.89;100404.75;4974824;28;20052;-93
2022/03/13 08:54:21;;;;;;;18.63;11.27;;;11.60;52.50;;;10.49;43.85;100401.69;4964435;28;20041;-94
2022/03/13 08:56:50;;;;;;;18.58;11.48;;;11.70;52.10;;;10.57;43.20;100407.03;5003368;28;20042;-91
2022/03/13 08:59:20;;;;;;;18.30;10.93;;;11.80;52.30;;;10.72;43.33;100407.03;4990623;28;20038;-91
2022/03/13 09:01:49;;;;;;;21.50;12.00;;;11.90;52.10;;;10.83;43.80;100405.69;4986846;28;20050;-95
2022/03/13 09:04:17;;;;;;;19.33;11.57;;;12.00;52.80;;;10.89;44.35;100404.97;4973983;28;20044;-89
2022/03/13 09:06:46;;;;;;;18.92;11.18;;;12.00;53.10;;;10.95;44.52;100401.47;4977160;28;20124;-94
2022/03/13 09:09:13;;;;;;;21.27;11.65;;;12.10;53.60;;;11.05;44.18;100392.16;4990275;28;20049;-86
2022/03/13 09:11:41;;;;;;;20.98;12.50;;;12.20;53.40;;;11.14;44.35;100399.19;4993564;28;20061;-92
2022/03/13 09:14:10;;;;;;;19.00;11.55;;;12.30;53.40;;;11.18;44.74;100395.03;4995419;28;20045;-88
2022/03/13 09:16:38;;;;;;;20.42;11.80;;;12.30;53.20;;;11.25;44.86;100395.09;4995742;28;20038;-90
2022/03/13 09:19:06;;;;;;;19.33;11.80;;;12.40;53.20;;;11.31;44.91;100384.28;4988489;28;20137;-90
2022/03/13 09:21:34;;;;;;;20.95;12.45;;;12.40;54.00;;;11.41;44.72;100388.59;4989550;28;20046;-91
2022/03/13 09:24:02;;;;;;;19.85;11.95;;;12.60;54.00;;;11.45;44.83;100388.00;4983351;28;20050;-90
2022/03/13 09:26:29;;;;;;;19.40;11.38;;;12.60;54.10;;;11.52;45.14;100380.75;4991973;28;20548;-91
2022/03/13 09:28:56;;;;;;;20.33;12.13;;;12.70;53.80;;;11.58;45.14;100383.75;5010214;28;20496;-91
2022/03/13 09:31:25;;;;;;;21.55;12.00;;;12.70;53.50;;;11.66;46.00;100389.06;4994940;28;20069;-91
2022/03/13 09:33:52;;;;;;;20.02;12.65;;;12.90;55.20;;;11.76;47.04;100399.63;5001837;28;20046;-91
2022/03/13 09:36:20;;;;;;;20.23;12.57;;;12.90;56.60;;;11.89;47.04;100402.47;4975979;28;20078;-90
2022/03/13 09:38:47;;;;;;;21.48;11.85;;;13.10;55.70;;;11.99;47.29;100399.44;4993330;28;20038;-91
2022/03/13 09:41:16;;;;;;;21.50;12.68;;;13.20;56.70;;;12.06;47.32;100397.63;4976101;28;20050;-90
2022/03/13 09:43:43;;;;;;;21.83;12.60;;;13.30;56.20;;;12.09;47.32;100392.63;4996574;28;20038;-91
2022/03/13 09:46:12;;;;;;;20.00;11.88;;;13.30;56.10;;;12.14;47.53;100392.00;5012980;28;20049;-92
2022/03/13 09:48:40;;;;;;;21.77;13.27;;;13.40;56.70;;;12.21;47.95;100394.81;5012619;28;20038;-90
2022/03/13 09:51:09;;;;;;;19.33;11.80;;;13.50;57.10;;;12.23;48.28;100393.56;4994840;28;20481;-91
2022/03/13 09:53:37;;;;;;;19.55;13.18;;;13.50;57.20;;;12.26;47.98;100392.31;5003253;28;20124;-90
2022/03/13 09:56:06;;;;;;;20.33;12.82;;;13.50;57.30;;;12.39;48.17;100392.41;4976192;28;20839;-91
2022/03/13 09:58:34;;;;;;;20.70;13.00;;;13.60;56.80;;;12.45;48.06;100396.22;4991723;28;20137;-91
2022/03/13 10:01:02;;;;;;;23.10;12.68;;;13.60;56.40;;;12.47;48.96;100386.81;4978895;28;20396;-90
2022/03/13 10:03:29;;;;;;;18.63;11.38;;;13.60;57.20;;;12.51;48.89;100384.50;4993613;28;20047;-92
2022/03/13 10:05:59;;;;;;;19.77;11.68;;;13.70;58.40;;;12.57;48.75;100383.72;4992892;28;20046;-90
2022/03/13 10:08:32;;;;;;;17.10;11.20;;;13.70;58.10;;;12.55;48.68;100374.03;4975069;28;20046;-91
2022/03/13 10:11:02;;;;;;;17.52;11.38;;;13.70;58.00;;;12.59;48.84;100372.59;4992694;28;20556;-91
2022/03/13 10:13:39;;;;;;;21.20;12.20;;;13.70;58.70;;;12.59;49.11;100367.13;4975228;28;20128;-92
2022/03/13 10:16:09;;;;;;;18.65;12.00;;;13.80;58.30;;;12.67;50.57;100370.53;4975364;28;20046;-90
2022/03/13 10:18:37;;;;;;;18.58;11.55;;;13.90;59.60;;;12.73;50.01;100373.50;4992717;28;20074;-91